Time;durP1;ratioP1;P1;durP2;ratioP2;P2;SDS_P1;SDS_P2;PMS_P1;PMS_P2;Temp;Humidity;BMP_temperature;BMP_pressure;BME280_temperature;BME280_humidity;BME280_pressure;Samples;Min_cycle;Max_cycle;Signal;HPM_P1;HPM_P2
2023/05/22 00:00:37;;;;;;;28.20;18.42;;;20.00;99.90;;;;;;4981226;28;20048;-75
2023/05/22 00:03:07;;;;;;;30.23;20.73;;;20.00;99.90;;;;;;4998434;28;20050;-75
2023/05/22 00:05:40;;;;;;;26.27;18.17;;;20.10;99.90;;;;;;4998585;28;20045;-75
2023/05/22 00:08:10;;;;;;;24.88;19.58;;;20.00;99.90;;;;;;4998623;28;20117;-75
2023/05/22 00:10:37;;;;;;;28.98;19.98;;;19.70;99.90;;;;;;4998593;28;20041;-75
2023/05/22 00:13:03;;;;;;;28.05;20.35;;;19.60;99.90;;;;;;4998432;28;20327;-75
2023/05/22 00:15:29;;;;;;;26.30;19.85;;;19.70;99.90;;;;;;4998429;28;20038;-75
2023/05/22 00:17:54;;;;;;;31.88;21.15;;;19.60;99.90;;;;;;4998368;28;20054;-75
2023/05/22 00:20:20;;;;;;;28.00;19.48;;;19.60;99.90;;;;;;4998026;28;20121;-75
2023/05/22 00:22:47;;;;;;;28.65;20.42;;;19.70;99.90;;;;;;4997983;28;20075;-75
2023/05/22 00:25:16;;;;;;;27.77;19.63;;;19.90;99.90;;;;;;4980672;28;20097;-75
2023/05/22 00:27:42;;;;;;;25.35;19.55;;;19.90;99.90;;;;;;4997877;28;20443;-76
2023/05/22 00:30:08;;;;;;;26.00;18.92;;;19.90;99.90;;;;;;4997787;28;20082;-75
2023/05/22 00:32:34;;;;;;;25.40;17.95;;;19.80;99.90;;;;;;4980801;28;20379;-75
2023/05/22 00:35:00;;;;;;;26.42;17.90;;;19.80;99.90;;;;;;4997834;28;20046;-75
2023/05/22 00:37:26;;;;;;;20.08;17.23;;;19.90;99.90;;;;;;4998001;28;20058;-75
2023/05/22 00:39:51;;;;;;;26.90;18.95;;;19.80;99.90;;;;;;4997707;28;20121;-75
2023/05/22 00:42:17;;;;;;;22.88;17.77;;;19.90;99.90;;;;;;4997638;28;20108;-75
2023/05/22 00:44:43;;;;;;;27.88;19.77;;;19.90;99.90;;;;;;4997943;28;20042;-75
2023/05/22 00:47:09;;;;;;;26.55;20.00;;;20.00;99.90;;;;;;4997561;28;20042;-75
2023/05/22 00:49:34;;;;;;;24.42;18.67;;;20.00;99.90;;;;;;4980319;28;20046;-75
2023/05/22 00:52:01;;;;;;;23.63;17.88;;;20.10;99.90;;;;;;4980602;28;20046;-75
2023/05/22 00:54:29;;;;;;;25.88;17.02;;;20.10;99.90;;;;;;4980207;28;20478;-75
2023/05/22 00:56:56;;;;;;;24.38;17.77;;;20.10;99.90;;;;;;4997189;28;20054;-75
2023/05/22 00:59:22;;;;;;;26.52;18.45;;;19.90;99.90;;;;;;4996959;28;20527;-75
2023/05/22 01:01:48;;;;;;;25.63;18.98;;;19.90;99.90;;;;;;4997637;28;20047;-75
2023/05/22 01:04:14;;;;;;;24.65;18.88;;;19.90;99.90;;;;;;4997639;28;20042;-75
2023/05/22 01:06:40;;;;;;;26.92;18.75;;;19.90;99.90;;;;;;4997570;28;20383;-75
2023/05/22 01:09:06;;;;;;;26.55;19.63;;;19.90;99.90;;;;;;4997427;28;20038;-75
2023/05/22 01:11:44;;;;;;;31.95;21.52;;;19.90;99.90;;;;;;4996626;28;20427;-75
2023/05/22 01:14:26;;;;;;;25.75;18.67;;;20.00;99.90;;;;;;4997568;28;20093;-75
2023/05/22 01:17:22;;;;;;;26.05;18.95;;;20.00;99.90;;;;;;4997502;28;20093;-75
2023/05/22 01:20:17;;;;;;;22.02;17.70;;;20.00;99.90;;;;;;4997117;28;20431;-75
2023/05/22 01:23:09;;;;;;;21.70;17.42;;;19.90;99.90;;;;;;4997408;28;20420;-75
2023/05/22 01:26:02;;;;;;;23.05;17.67;;;19.90;99.90;;;;;;4977007;28;20061;-75
2023/05/22 01:28:40;;;;;;;24.63;18.05;;;19.80;99.90;;;;;;4997404;28;20042;-75
2023/05/22 01:31:14;;;;;;;23.70;18.60;;;19.70;99.90;;;;;;4997018;28;20105;-75
2023/05/22 01:33:51;;;;;;;27.52;18.95;;;19.70;99.90;;;;;;4997285;28;20213;-75
2023/05/22 01:36:21;;;;;;;26.83;19.15;;;19.80;99.90;;;;;;4997304;28;20110;-75
2023/05/22 01:38:47;;;;;;;24.20;18.05;;;19.90;99.90;;;;;;4997268;28;20323;-75
2023/05/22 01:41:13;;;;;;;26.05;17.17;;;19.90;99.90;;;;;;4997258;28;20050;-75
2023/05/22 01:43:40;;;;;;;25.38;18.25;;;19.80;99.90;;;;;;4996877;28;20450;-75
2023/05/22 01:46:05;;;;;;;23.00;18.23;;;19.80;99.90;;;;;;4997208;28;20038;-75
2023/05/22 01:48:32;;;;;;;23.58;18.40;;;19.70;99.90;;;;;;4997178;28;20496;-75
2023/05/22 01:51:04;;;;;;;24.83;18.88;;;19.70;99.90;;;;;;4997155;28;20121;-75
2023/05/22 01:53:38;;;;;;;25.92;19.05;;;19.70;99.90;;;;;;4997095;28;20138;-75
2023/05/22 01:56:13;;;;;;;24.90;18.90;;;19.70;99.90;;;;;;4996952;28;20047;-75
2023/05/22 01:58:55;;;;;;;29.50;20.95;;;19.70;99.90;;;;;;4997106;28;20118;-75
2023/05/22 02:01:23;;;;;;;29.42;19.85;;;19.70;99.90;;;;;;4996763;28;20309;-75
2023/05/22 02:03:55;;;;;;;27.30;19.52;;;19.80;99.90;;;;;;4997044;28;20081;-75
2023/05/22 02:06:22;;;;;;;27.77;19.17;;;19.80;99.90;;;;;;4996857;28;20041;-75
2023/05/22 02:08:49;;;;;;;26.45;18.88;;;19.70;99.90;;;;;;4979522;28;20058;-75
2023/05/22 02:11:16;;;;;;;25.25;18.02;;;19.70;99.90;;;;;;4996973;28;20043;-75
2023/05/22 02:13:42;;;;;;;29.05;20.85;;;19.70;99.90;;;;;;4996865;28;20117;-75
2023/05/22 02:16:08;;;;;;;31.98;23.50;;;19.70;99.90;;;;;;4996882;28;20117;-76
2023/05/22 02:18:34;;;;;;;27.08;19.38;;;19.80;99.90;;;;;;4996919;28;20034;-75
2023/05/22 02:21:01;;;;;;;26.45;19.63;;;19.80;99.90;;;;;;4997279;28;20117;-75
2023/05/22 02:23:28;;;;;;;25.25;19.17;;;19.80;99.90;;;;;;5000526;28;20043;-75
2023/05/22 02:25:54;;;;;;;24.23;17.85;;;19.80;99.90;;;;;;5000503;28;20030;-75
2023/05/22 02:28:20;;;;;;;27.60;19.83;;;19.80;99.90;;;;;;5000413;28;20399;-75
2023/05/22 02:30:46;;;;;;;24.20;17.48;;;19.80;99.90;;;;;;5000070;28;20070;-75
2023/05/22 02:33:11;;;;;;;24.65;18.52;;;19.80;99.90;;;;;;5000238;28;20038;-75
2023/05/22 02:35:37;;;;;;;26.98;21.15;;;19.80;99.90;;;;;;5000019;28;20046;-75
2023/05/22 02:38:03;;;;;;;28.25;20.67;;;19.70;99.90;;;;;;5000248;28;20041;-75
2023/05/22 02:40:29;;;;;;;25.17;19.48;;;19.80;99.90;;;;;;5000259;28;20031;-75
2023/05/22 02:42:54;;;;;;;24.95;18.40;;;19.80;99.90;;;;;;5000164;28;20038;-75
2023/05/22 02:45:20;;;;;;;25.27;19.65;;;19.80;99.90;;;;;;4999906;28;20124;-75
2023/05/22 02:47:46;;;;;;;24.60;19.27;;;19.80;99.90;;;;;;5000110;28;20166;-75
2023/05/22 02:50:12;;;;;;;30.88;21.45;;;19.80;99.90;;;;;;4999698;28;20040;-75
2023/05/22 02:52:38;;;;;;;31.73;20.95;;;19.70;99.90;;;;;;4999902;28;20081;-75
2023/05/22 02:55:04;;;;;;;27.02;21.48;;;19.70;99.90;;;;;;4999964;28;20081;-75
2023/05/22 02:57:30;;;;;;;36.25;24.60;;;19.70;99.90;;;;;;4982276;28;20082;-75
2023/05/22 02:59:56;;;;;;;33.75;24.17;;;19.70;99.90;;;;;;4999437;28;20425;-75
2023/05/22 03:02:24;;;;;;;32.22;21.00;;;19.70;99.90;;;;;;4999784;28;20038;-75
2023/05/22 03:04:50;;;;;;;29.23;21.77;;;19.80;99.90;;;;;;4982254;28;20077;-75
2023/05/22 03:07:16;;;;;;;25.08;20.02;;;19.80;99.90;;;;;;4982279;28;20078;-75
2023/05/22 03:09:41;;;;;;;26.58;19.85;;;19.80;99.90;;;;;;4999644;28;20117;-75
2023/05/22 03:12:08;;;;;;;27.10;21.70;;;19.80;99.90;;;;;;4999646;28;20039;-75
2023/05/22 03:14:34;;;;;;;28.58;20.17;;;19.80;99.90;;;;;;4999511;28;20050;-75
2023/05/22 03:16:59;;;;;;;34.17;22.88;;;19.80;99.90;;;;;;4999516;28;20041;-76
2023/05/22 03:19:25;;;;;;;33.65;24.30;;;19.80;99.90;;;;;;4981976;28;20038;-75
2023/05/22 03:21:51;;;;;;;30.00;22.27;;;19.80;99.90;;;;;;4999430;28;20037;-75
2023/05/22 03:24:16;;;;;;;31.98;20.45;;;19.80;99.90;;;;;;4982203;28;20089;-75
2023/05/22 03:26:42;;;;;;;27.85;20.08;;;19.80;99.90;;;;;;4999357;28;20431;-75
2023/05/22 03:29:08;;;;;;;28.65;20.30;;;19.80;99.90;;;;;;4999332;28;20125;-75
2023/05/22 03:31:35;;;;;;;35.10;24.20;;;19.70;99.90;;;;;;4998907;28;20038;-75
2023/05/22 03:34:01;;;;;;;28.02;21.15;;;19.60;99.90;;;;;;4998323;28;20043;-75
2023/05/22 03:36:28;;;;;;;32.47;22.88;;;19.60;99.90;;;;;;4999196;28;20042;-75
2023/05/22 03:38:54;;;;;;;31.70;23.10;;;19.70;99.90;;;;;;4998835;28;20113;-75
2023/05/22 03:41:19;;;;;;;28.17;22.25;;;19.70;99.90;;;;;;4999108;28;20170;-75
2023/05/22 03:43:45;;;;;;;32.83;22.95;;;19.70;99.90;;;;;;4999037;28;20450;-75
2023/05/22 03:46:11;;;;;;;29.98;20.85;;;19.70;99.90;;;;;;4999044;28;20327;-75
2023/05/22 03:48:38;;;;;;;32.47;23.40;;;19.70;99.90;;;;;;4981460;28;20054;-75
2023/05/22 03:51:03;;;;;;;33.55;23.85;;;19.70;99.90;;;;;;4998926;28;20058;-75
2023/05/22 03:53:29;;;;;;;30.95;22.73;;;19.70;99.90;;;;;;4998488;28;20336;-75
2023/05/22 03:55:56;;;;;;;30.33;23.05;;;19.70;99.90;;;;;;4998303;28;20042;-76
2023/05/22 03:58:24;;;;;;;31.02;23.27;;;19.60;99.90;;;;;;4998305;28;20050;-75
2023/05/22 04:00:52;;;;;;;30.00;23.23;;;19.70;99.90;;;;;;4998053;28;20050;-75
2023/05/22 04:03:18;;;;;;;27.73;22.40;;;19.70;99.90;;;;;;4998674;28;20039;-75
2023/05/22 04:05:44;;;;;;;31.23;23.42;;;19.60;99.90;;;;;;4998616;28;20056;-75
2023/05/22 04:08:10;;;;;;;32.88;22.83;;;19.70;99.90;;;;;;4999061;28;20382;-75
2023/05/22 04:10:37;;;;;;;38.63;27.05;;;19.60;99.90;;;;;;4998514;28;20038;-75
2023/05/22 04:13:03;;;;;;;39.22;27.60;;;19.60;99.90;;;;;;4980950;28;20432;-75
2023/05/22 04:15:32;;;;;;;39.83;27.58;;;19.40;99.90;;;;;;4998456;28;20045;-75
2023/05/22 04:18:01;;;;;;;36.63;26.20;;;19.30;99.90;;;;;;4998079;28;20049;-75
2023/05/22 04:20:26;;;;;;;34.03;25.83;;;19.20;99.90;;;;;;4998351;28;20057;-75
2023/05/22 04:22:56;;;;;;;45.47;31.50;;;19.10;99.90;;;;;;4998284;28;20042;-75
2023/05/22 04:25:22;;;;;;;42.05;29.85;;;19.20;99.90;;;;;;4998024;28;20073;-75
2023/05/22 04:27:47;;;;;;;33.72;25.48;;;19.20;99.90;;;;;;4997909;28;20456;-75
2023/05/22 04:30:15;;;;;;;34.75;24.83;;;19.30;99.90;;;;;;4997602;28;20031;-75
2023/05/22 04:32:42;;;;;;;41.60;29.23;;;19.30;99.90;;;;;;4997775;28;20042;-75
2023/05/22 04:35:08;;;;;;;33.70;25.35;;;19.30;99.90;;;;;;4998109;28;20046;-75
2023/05/22 04:37:35;;;;;;;42.35;29.02;;;19.10;99.90;;;;;;4998120;28;20050;-75
2023/05/22 04:40:05;;;;;;;37.90;27.42;;;19.10;99.90;;;;;;4997995;28;20034;-75
2023/05/22 04:42:33;;;;;;;37.33;25.88;;;19.10;99.90;;;;;;4998005;28;20042;-75
2023/05/22 04:44:59;;;;;;;46.17;28.45;;;19.10;99.90;;;;;;4997868;28;20046;-75
2023/05/22 04:47:27;;;;;;;45.90;29.50;;;19.10;99.90;;;;;;4997909;28;20030;-75
2023/05/22 04:49:55;;;;;;;40.67;26.77;;;19.10;99.90;;;;;;4997520;28;20051;-75
2023/05/22 04:52:21;;;;;;;46.13;30.35;;;19.10;99.90;;;;;;4997855;28;20397;-75
2023/05/22 04:54:48;;;;;;;38.60;26.88;;;19.10;99.90;;;;;;4997699;28;20073;-75
2023/05/22 04:57:16;;;;;;;40.22;27.45;;;19.20;99.90;;;;;;4997473;28;20059;-75
2023/05/22 04:59:41;;;;;;;44.88;28.90;;;19.10;99.90;;;;;;4997359;28;20420;-75
2023/05/22 05:02:07;;;;;;;38.42;25.83;;;18.80;99.90;;;;;;4997643;28;20042;-75
2023/05/22 05:04:33;;;;;;;40.45;25.45;;;18.80;99.90;;;;;;4997638;28;20038;-75
2023/05/22 05:06:59;;;;;;;41.83;25.20;;;18.80;99.90;;;;;;4997292;28;20359;-75
2023/05/22 05:09:24;;;;;;;38.45;24.45;;;18.60;99.90;;;;;;4997569;28;20042;-75
2023/05/22 05:11:51;;;;;;;37.92;24.50;;;18.70;99.90;;;;;;4997212;28;20038;-75
2023/05/22 05:14:18;;;;;;;34.47;23.63;;;18.80;99.90;;;;;;4997156;28;20455;-75
2023/05/22 05:16:44;;;;;;;37.17;25.70;;;18.90;99.90;;;;;;4997513;28;20039;-75
2023/05/22 05:19:09;;;;;;;35.50;22.95;;;18.90;99.90;;;;;;4979959;28;20416;-75
2023/05/22 05:21:35;;;;;;;34.75;23.17;;;18.80;99.90;;;;;;4997396;28;20049;-75
2023/05/22 05:24:01;;;;;;;32.85;21.38;;;18.90;99.90;;;;;;4997029;28;20042;-75
2023/05/22 05:26:27;;;;;;;32.47;21.15;;;19.00;99.90;;;;;;4997385;28;20064;-75
2023/05/22 05:28:53;;;;;;;30.10;21.20;;;19.10;99.90;;;;;;4997340;28;20408;-75
2023/05/22 05:31:19;;;;;;;26.58;19.88;;;19.00;99.90;;;;;;4996629;28;20440;-75
2023/05/22 05:33:45;;;;;;;30.52;21.33;;;19.10;99.90;;;;;;4997218;28;20078;-75
2023/05/22 05:36:11;;;;;;;31.88;19.25;;;19.10;99.90;;;;;;4997110;28;20073;-75
2023/05/22 05:38:37;;;;;;;25.48;19.25;;;19.10;99.90;;;;;;4997307;28;20066;-75
2023/05/22 05:41:03;;;;;;;31.60;19.77;;;19.00;99.90;;;;;;4980136;28;20439;-75
2023/05/22 05:43:29;;;;;;;25.63;18.90;;;18.90;99.90;;;;;;4996752;28;20045;-75
2023/05/22 05:45:54;;;;;;;23.17;18.05;;;19.00;99.90;;;;;;4996941;28;20424;-75
2023/05/22 05:48:20;;;;;;;26.45;18.15;;;19.10;99.90;;;;;;4997163;28;20058;-75
2023/05/22 05:50:46;;;;;;;26.92;19.02;;;19.20;99.90;;;;;;4997184;28;20482;-75
2023/05/22 05:53:11;;;;;;;26.75;18.20;;;19.30;99.90;;;;;;4996790;28;20082;-75
2023/05/22 05:55:37;;;;;;;24.05;17.67;;;19.20;99.90;;;;;;4997091;28;20046;-75
2023/05/22 05:58:03;;;;;;;26.63;18.73;;;19.20;99.90;;;;;;4983162;28;20061;-75
2023/05/22 06:00:29;;;;;;;24.25;16.95;;;19.30;99.90;;;;;;5000590;28;20046;-75
2023/05/22 06:02:54;;;;;;;26.65;17.60;;;19.20;99.90;;;;;;4983466;28;20474;-75
2023/05/22 06:05:21;;;;;;;25.25;17.27;;;19.20;99.90;;;;;;5001013;28;20073;-75
2023/05/22 06:07:48;;;;;;;19.92;15.80;;;19.30;99.90;;;;;;5000523;28;20047;-75
2023/05/22 06:10:14;;;;;;;24.38;16.15;;;19.30;99.90;;;;;;5000803;28;20038;-75
2023/05/22 06:12:40;;;;;;;29.02;16.45;;;19.40;99.90;;;;;;4983514;28;20092;-75
2023/05/22 06:15:07;;;;;;;19.88;14.75;;;19.50;99.90;;;;;;5000482;28;20125;-75
2023/05/22 06:17:33;;;;;;;26.55;16.08;;;19.50;99.90;;;;;;5000659;28;20034;-75
2023/05/22 06:19:59;;;;;;;25.92;16.42;;;19.30;99.90;;;;;;5000582;28;20157;-75
2023/05/22 06:22:25;;;;;;;20.88;13.90;;;19.20;99.90;;;;;;5000590;28;20114;-75
2023/05/22 06:24:53;;;;;;;26.73;15.80;;;19.10;99.90;;;;;;4994558;28;20046;-75
2023/05/22 06:27:23;;;;;;;22.27;15.05;;;19.20;99.90;;;;;;4990469;28;20039;-72
2023/05/22 06:29:49;;;;;;;23.58;14.65;;;19.10;99.90;;;;;;4980561;28;20392;-72
2023/05/22 06:32:15;;;;;;;24.58;14.73;;;19.10;99.90;;;;;;4991065;28;20528;-73
2023/05/22 06:34:43;;;;;;;23.75;15.20;;;19.10;99.90;;;;;;4990316;28;20056;-71
2023/05/22 06:37:09;;;;;;;25.17;15.18;;;19.10;99.90;;;;;;4987079;28;20038;-72
2023/05/22 06:39:35;;;;;;;25.48;15.63;;;19.10;99.90;;;;;;4989628;28;20045;-72
2023/05/22 06:42:00;;;;;;;26.08;14.70;;;19.20;99.90;;;;;;4980759;28;20042;-71
2023/05/22 06:44:26;;;;;;;28.88;15.20;;;19.10;99.90;;;;;;4980456;28;20041;-71
2023/05/22 06:46:52;;;;;;;22.95;14.40;;;19.10;99.90;;;;;;4980657;28;20038;-71
2023/05/22 06:49:18;;;;;;;28.75;13.95;;;19.10;99.90;;;;;;4980631;28;20078;-71
2023/05/22 06:51:44;;;;;;;28.55;14.15;;;18.90;99.90;;;;;;4980536;28;20053;-71
2023/05/22 06:54:12;;;;;;;28.77;13.32;;;18.80;99.90;;;;;;4980466;28;20039;-71
2023/05/22 06:56:39;;;;;;;26.45;12.27;;;18.90;99.90;;;;;;4980525;28;20050;-71
2023/05/22 06:59:04;;;;;;;28.40;12.93;;;19.00;99.90;;;;;;4980075;28;20050;-71
2023/05/22 07:01:30;;;;;;;22.08;12.60;;;18.80;99.90;;;;;;4980073;28;20416;-71
2023/05/22 07:04:00;;;;;;;27.85;11.85;;;18.80;99.90;;;;;;4980382;28;20049;-69
2023/05/22 07:06:26;;;;;;;23.88;12.73;;;18.70;99.90;;;;;;4980534;28;20050;-71
2023/05/22 07:08:52;;;;;;;25.10;10.75;;;18.90;99.90;;;;;;4982194;28;20046;-71
2023/05/22 07:11:18;;;;;;;27.38;11.95;;;19.00;99.90;;;;;;4980242;28;20332;-70
2023/05/22 07:13:44;;;;;;;17.95;10.45;;;19.00;99.90;;;;;;4979780;28;20047;-70
2023/05/22 07:16:10;;;;;;;19.73;11.25;;;18.70;99.90;;;;;;4980162;28;20122;-71
2023/05/22 07:18:35;;;;;;;23.95;11.02;;;18.70;99.90;;;;;;4979804;28;20039;-70
2023/05/22 07:21:01;;;;;;;19.35;9.52;;;18.60;99.90;;;;;;4980049;28;20039;-71
2023/05/22 07:23:27;;;;;;;23.55;9.57;;;18.60;99.90;;;;;;4980020;28;20038;-71
2023/05/22 07:25:53;;;;;;;22.27;10.05;;;18.60;99.90;;;;;;4980006;28;20047;-70
2023/05/22 07:28:18;;;;;;;27.40;10.10;;;18.50;99.90;;;;;;4979614;28;20125;-69
2023/05/22 07:30:44;;;;;;;27.42;9.43;;;18.50;99.90;;;;;;4962394;28;20046;-69
2023/05/22 07:33:10;;;;;;;29.17;10.02;;;18.50;99.90;;;;;;4979647;28;20064;-70
2023/05/22 07:35:36;;;;;;;24.60;10.10;;;18.60;99.90;;;;;;4979780;28;20053;-69
2023/05/22 07:38:02;;;;;;;27.27;9.27;;;18.60;99.90;;;;;;4979735;28;20034;-70
2023/05/22 07:40:28;;;;;;;27.40;9.02;;;18.60;99.90;;;;;;4979424;28;20042;-71
2023/05/22 07:42:54;;;;;;;26.58;9.45;;;18.50;99.90;;;;;;4979656;28;20119;-70
2023/05/22 07:45:20;;;;;;;30.70;9.93;;;18.50;99.90;;;;;;4979339;28;20097;-70
2023/05/22 07:47:45;;;;;;;32.78;9.65;;;18.50;99.90;;;;;;4962481;28;20047;-70
2023/05/22 07:50:11;;;;;;;24.83;9.80;;;18.30;99.90;;;;;;4979482;28;20045;-70
2023/05/22 07:52:37;;;;;;;29.13;10.48;;;18.40;99.90;;;;;;4979429;28;20395;-70
2023/05/22 07:55:03;;;;;;;32.88;10.32;;;18.40;99.90;;;;;;4979438;28;20042;-70
2023/05/22 07:57:28;;;;;;;29.13;9.63;;;18.50;99.90;;;;;;4979101;28;20142;-71
2023/05/22 07:59:55;;;;;;;29.80;10.23;;;18.30;99.90;;;;;;4978987;28;20347;-71
2023/05/22 08:02:21;;;;;;;33.95;9.80;;;18.20;99.90;;;;;;4979328;28;20309;-70
2023/05/22 08:04:47;;;;;;;29.65;10.15;;;18.00;99.90;;;;;;4979221;28;20042;-70
2023/05/22 08:07:13;;;;;;;34.17;10.40;;;18.10;99.90;;;;;;4979199;28;20055;-71
2023/05/22 08:09:38;;;;;;;28.20;9.85;;;18.10;99.90;;;;;;4979136;28;20042;-70
2023/05/22 08:12:05;;;;;;;29.05;9.02;;;18.20;99.90;;;;;;4979129;28;20043;-70
2023/05/22 08:14:31;;;;;;;39.72;10.75;;;18.20;99.90;;;;;;4979022;28;20137;-70
2023/05/22 08:16:57;;;;;;;27.92;9.98;;;18.10;99.90;;;;;;4978684;28;20436;-71
2023/05/22 08:19:24;;;;;;;26.35;10.20;;;17.90;99.90;;;;;;4978644;28;20051;-71
2023/05/22 08:21:56;;;;;;;28.40;10.60;;;18.10;99.90;;;;;;4978925;28;20051;-70
2023/05/22 08:24:27;;;;;;;34.72;10.77;;;18.30;99.90;;;;;;4979234;28;20038;-70
2023/05/22 08:26:53;;;;;;;28.55;10.50;;;18.30;99.90;;;;;;4978866;28;20042;-70
2023/05/22 08:29:19;;;;;;;29.02;10.23;;;18.40;99.90;;;;;;4978769;28;20046;-71
2023/05/22 08:31:45;;;;;;;26.95;9.68;;;18.40;99.90;;;;;;4978344;28;20097;-72
2023/05/22 08:34:11;;;;;;;21.67;9.40;;;18.60;99.90;;;;;;4978598;28;20050;-69
2023/05/22 08:36:36;;;;;;;24.60;9.95;;;18.60;99.90;;;;;;4978643;28;20046;-71
2023/05/22 08:39:02;;;;;;;17.13;9.05;;;18.70;99.90;;;;;;4978764;28;20035;-85
2023/05/22 08:41:28;;;;;;;23.38;8.30;;;18.50;99.90;;;;;;4945327;28;20131;-83
2023/05/22 08:43:54;;;;;;;23.80;8.70;;;18.10;99.90;;;;;;4945240;28;20049;-84
2023/05/22 08:46:27;;;;;;;26.52;9.70;;;18.20;99.90;;;;;;4945184;28;20042;-85
2023/05/22 08:48:57;;;;;;;24.35;9.95;;;18.40;99.90;;;;;;4946397;28;20483;-76
2023/05/22 08:51:27;;;;;;;21.45;9.25;;;18.50;99.90;;;;;;4995500;28;20085;-71
2023/05/22 08:53:56;;;;;;;30.33;10.27;;;18.60;99.90;;;;;;4997150;28;20038;-72
2023/05/22 08:56:21;;;;;;;21.02;9.95;;;18.70;99.90;;;;;;4993501;28;20113;-71
2023/05/22 08:58:50;;;;;;;23.08;11.13;;;18.90;99.90;;;;;;4997177;28;20142;-71
2023/05/22 09:01:16;;;;;;;24.70;10.40;;;18.70;99.90;;;;;;4996845;28;20034;-72
2023/05/22 09:03:42;;;;;;;26.65;10.38;;;18.80;99.90;;;;;;4997200;28;20046;-71
2023/05/22 09:06:09;;;;;;;23.27;10.38;;;18.80;99.90;;;;;;4994393;28;20120;-73
2023/05/22 09:08:36;;;;;;;31.20;11.68;;;18.60;99.90;;;;;;4990663;28;20049;-81
2023/05/22 09:11:02;;;;;;;17.33;9.50;;;18.60;99.90;;;;;;4996141;28;20097;-88
2023/05/22 09:13:29;;;;;;;22.20;9.95;;;18.40;99.90;;;;;;4980436;28;20050;-88
2023/05/22 09:15:59;;;;;;;21.05;10.23;;;18.50;99.90;;;;;;4980565;28;20393;-89
2023/05/22 09:18:28;;;;;;;19.08;9.57;;;18.40;99.90;;;;;;4980503;28;20049;-89
2023/05/22 09:20:58;;;;;;;20.98;10.77;;;18.60;99.90;;;;;;4980276;28;20341;-76
2023/05/22 09:23:26;;;;;;;24.73;10.38;;;18.70;99.90;;;;;;4996419;28;20043;-76
2023/05/22 09:26:00;;;;;;;22.67;10.93;;;18.70;99.90;;;;;;4996125;28;20046;-77
2023/05/22 09:28:30;;;;;;;27.35;10.57;;;18.90;99.90;;;;;;4997448;28;20046;-77
2023/05/22 09:30:57;;;;;;;23.60;11.98;;;18.90;99.90;;;;;;4996035;28;20336;-76
2023/05/22 09:33:23;;;;;;;20.27;11.18;;;18.80;99.90;;;;;;4997230;28;20121;-77
2023/05/22 09:35:53;;;;;;;24.98;11.05;;;19.00;99.90;;;;;;4996210;28;20519;-76
2023/05/22 09:38:21;;;;;;;25.20;10.38;;;19.10;99.90;;;;;;4997300;28;20097;-77
2023/05/22 09:40:52;;;;;;;21.92;11.52;;;19.20;99.90;;;;;;4997272;28;20048;-77
2023/05/22 09:43:18;;;;;;;27.92;10.85;;;19.40;99.90;;;;;;4995974;28;20129;-77
2023/05/22 09:45:43;;;;;;;22.85;10.50;;;19.70;99.90;;;;;;4997198;28;20137;-77
2023/05/22 09:48:09;;;;;;;26.63;12.43;;;20.00;99.90;;;;;;4996857;28;20045;-77
2023/05/22 09:50:35;;;;;;;25.95;12.20;;;20.30;99.90;;;;;;4996123;28;20057;-77
2023/05/22 09:53:03;;;;;;;45.10;14.48;;;20.60;99.90;;;;;;4997413;28;20049;-93
2023/05/22 09:55:30;;;;;;;27.15;11.25;;;20.80;99.90;;;;;;4996148;28;20045;-88
2023/05/22 09:57:57;;;;;;;17.73;9.77;;;20.80;99.90;;;;;;4980506;28;20058;-87
2023/05/22 10:00:25;;;;;;;26.15;11.23;;;20.60;99.90;;;;;;4997769;28;20455;-84
2023/05/22 10:03:02;;;;;;;24.38;10.68;;;20.50;99.90;;;;;;4996110;28;20039;-83
2023/05/22 10:05:30;;;;;;;20.95;10.90;;;20.40;99.90;;;;;;4995816;28;20046;-87
2023/05/22 10:08:09;;;;;;;24.55;11.15;;;20.60;99.90;;;;;;4997045;28;20125;-83
2023/05/22 10:10:36;;;;;;;23.05;11.43;;;20.90;99.90;;;;;;4995911;28;20050;-88
2023/05/22 10:13:05;;;;;;;25.55;11.98;;;21.10;99.90;;;;;;4996087;28;20125;-86
2023/05/22 10:15:31;;;;;;;25.20;11.10;;;21.00;99.90;;;;;;4979762;28;20121;-88
2023/05/22 10:17:58;;;;;;;22.80;11.52;;;20.70;99.90;;;;;;4996157;28;20049;-88
2023/05/22 10:20:27;;;;;;;24.30;12.20;;;20.90;99.90;;;;;;4980297;28;20034;-88
2023/05/22 10:22:54;;;;;;;23.95;11.50;;;21.30;99.90;;;;;;4996151;28;20423;-88
2023/05/22 10:25:24;;;;;;;25.25;12.57;;;21.40;99.90;;;;;;4963784;28;20043;-89
2023/05/22 10:27:52;;;;;;;23.58;10.90;;;21.10;99.90;;;;;;4980279;28;20185;-89
2023/05/22 10:30:44;;;;;;;25.13;11.07;;;20.90;99.90;;;;;;4979853;28;20337;-89
2023/05/22 10:33:23;;;;;;;27.98;11.85;;;20.80;99.90;;;;;;4959869;28;20057;-88
2023/05/22 10:36:01;;;;;;;28.27;12.88;;;20.80;99.90;;;;;;4996377;28;20039;-81
2023/05/22 10:38:51;;;;;;;31.25;13.25;;;20.60;99.90;;;;;;4995591;28;20120;-85
2023/05/22 10:41:17;;;;;;;54.80;17.05;;;20.50;99.90;;;;;;4996871;28;20088;-88
2023/05/22 10:43:47;;;;;;;28.17;12.45;;;20.70;99.90;;;;;;4982603;28;20042;-89
2023/05/22 10:46:13;;;;;;;28.23;12.40;;;20.60;99.90;;;;;;4983242;28;20053;-88
2023/05/22 10:48:44;;;;;;;24.17;11.85;;;20.90;99.90;;;;;;4967184;28;20038;-89
2023/05/22 10:51:12;;;;;;;25.10;11.77;;;21.10;99.90;;;;;;4999394;28;20048;-89
2023/05/22 10:53:39;;;;;;;23.70;13.15;;;21.00;99.90;;;;;;4983102;28;20503;-89
2023/05/22 10:56:14;;;;;;;30.80;12.75;;;20.90;99.90;;;;;;4999323;28;20042;-89
2023/05/22 10:58:43;;;;;;;24.38;12.07;;;21.00;99.90;;;;;;4999010;28;20057;-89
2023/05/22 11:01:20;;;;;;;24.48;12.35;;;21.10;99.90;;;;;;4998606;28;20046;-89
2023/05/22 11:03:57;;;;;;;26.90;11.93;;;21.00;99.90;;;;;;4967052;28;20466;-88
2023/05/22 11:06:40;;;;;;;26.75;12.98;;;21.00;99.90;;;;;;4998850;28;20093;-89
2023/05/22 11:09:27;;;;;;;27.23;13.68;;;20.80;99.90;;;;;;4983144;28;20053;-84
2023/05/22 11:12:29;;;;;;;26.55;13.45;;;21.00;99.90;;;;;;4998710;28;20042;-90
2023/05/22 11:14:55;;;;;;;21.65;12.77;;;21.00;99.90;;;;;;4984457;28;20042;-88
2023/05/22 11:17:30;;;;;;;24.73;12.40;;;21.10;99.90;;;;;;4982266;28;20088;-88
2023/05/22 11:20:04;;;;;;;22.98;13.18;;;21.60;99.90;;;;;;4998619;28;20048;-86
2023/05/22 11:22:30;;;;;;;22.90;12.13;;;21.90;99.90;;;;;;4982228;28;20042;-88
2023/05/22 11:24:56;;;;;;;25.75;12.82;;;22.00;99.90;;;;;;4982423;28;20050;-88
2023/05/22 11:27:21;;;;;;;25.33;12.73;;;22.10;99.90;;;;;;4998667;28;20335;-89
2023/05/22 11:29:48;;;;;;;23.13;12.55;;;22.00;99.90;;;;;;4982260;28;20428;-83
2023/05/22 11:32:19;;;;;;;19.38;11.82;;;22.50;99.90;;;;;;4981512;28;20046;-79
2023/05/22 11:34:45;;;;;;;18.80;12.23;;;22.90;99.90;;;;;;4982638;28;20057;-78
2023/05/22 11:37:11;;;;;;;19.67;12.30;;;22.80;99.90;;;;;;4999235;28;20080;-79
2023/05/22 11:39:37;;;;;;;19.73;12.35;;;23.10;99.90;;;;;;4998258;28;20430;-79
2023/05/22 11:42:03;;;;;;;23.13;12.35;;;22.60;99.90;;;;;;4997859;28;20042;-79
2023/05/22 11:44:29;;;;;;;16.90;11.65;;;22.60;99.90;;;;;;4998124;28;20049;-79
2023/05/22 11:46:55;;;;;;;17.05;12.40;;;22.90;99.90;;;;;;4999043;28;20443;-78
2023/05/22 11:49:24;;;;;;;19.50;12.65;;;23.20;99.90;;;;;;4997988;28;20125;-79
2023/05/22 11:51:50;;;;;;;21.45;13.68;;;23.50;99.90;;;;;;4998041;28;20053;-78
2023/05/22 11:54:19;;;;;;;21.38;14.75;;;23.80;99.90;;;;;;4998237;28;20097;-79
2023/05/22 11:56:45;;;;;;;22.90;14.40;;;23.90;99.90;;;;;;4997590;28;20121;-79
2023/05/22 11:59:10;;;;;;;20.38;13.57;;;23.90;99.90;;;;;;4997343;28;20137;-80
2023/05/22 12:01:36;;;;;;;27.90;16.45;;;23.90;99.90;;;;;;4997189;28;20049;-79
2023/05/22 12:04:03;;;;;;;26.38;17.52;;;23.90;99.90;;;;;;4998513;28;20060;-79
2023/05/22 12:06:32;;;;;;;20.85;15.45;;;24.00;99.90;;;;;;4998375;28;20486;-80
2023/05/22 12:08:59;;;;;;;23.48;15.93;;;24.20;99.90;;;;;;4997367;28;20440;-69
2023/05/22 12:11:26;;;;;;;20.67;16.23;;;24.50;99.90;;;;;;4998600;28;20089;-71
2023/05/22 12:14:00;;;;;;;31.38;16.30;;;25.10;99.90;;;;;;4998531;28;20057;-71
2023/05/22 12:16:26;;;;;;;20.30;15.18;;;25.70;99.90;;;;;;4998569;28;20077;-72
2023/05/22 12:18:54;;;;;;;20.05;15.30;;;26.20;99.90;;;;;;4998459;28;20049;-72
2023/05/22 12:21:21;;;;;;;22.13;14.48;;;26.50;99.90;;;;;;4998051;28;20328;-72
2023/05/22 12:23:50;;;;;;;18.67;14.82;;;26.40;99.90;;;;;;4998346;28;20372;-72
2023/05/22 12:26:16;;;;;;;21.15;15.95;;;26.40;99.90;;;;;;4997891;28;20089;-73
2023/05/22 12:28:42;;;;;;;21.42;15.63;;;26.00;99.90;;;;;;4997695;28;20042;-72
2023/05/22 12:31:08;;;;;;;19.90;14.57;;;26.10;99.90;;;;;;4997524;28;20057;-72